sensor_id;sensor_type;location;lat;lon;timestamp;P1;durP1;ratioP1;P2;durP2;ratioP2
28335;SDS011;15592;53.656;7.276;2023-04-03T00:00:31;1.35;;;1.00;;
28335;SDS011;15592;53.656;7.276;2023-04-03T00:02:57;1.80;;;1.10;;
28335;SDS011;15592;53.656;7.276;2023-04-03T00:05:23;2.97;;;1.20;;
28335;SDS011;15592;53.656;7.276;2023-04-03T00:07:49;3.25;;;1.50;;
28335;SDS011;15592;53.656;7.276;2023-04-03T00:10:15;1.90;;;1.00;;
28335;SDS011;15592;53.656;7.276;2023-04-03T00:12:40;2.42;;;1.33;;
28335;SDS011;15592;53.656;7.276;2023-04-03T00:15:06;2.22;;;1.25;;
28335;SDS011;15592;53.656;7.276;2023-04-03T00:17:33;4.00;;;1.35;;
28335;SDS011;15592;53.656;7.276;2023-04-03T00:19:58;2.67;;;1.20;;
28335;SDS011;15592;53.656;7.276;2023-04-03T00:22:24;2.17;;;1.27;;
28335;SDS011;15592;53.656;7.276;2023-04-03T00:24:51;2.17;;;1.20;;
28335;SDS011;15592;53.656;7.276;2023-04-03T00:27:17;3.95;;;1.10;;
28335;SDS011;15592;53.656;7.276;2023-04-03T00:29:42;3.70;;;1.30;;
28335;SDS011;15592;53.656;7.276;2023-04-03T00:32:08;4.10;;;1.33;;
28335;SDS011;15592;53.656;7.276;2023-04-03T00:34:34;2.97;;;1.52;;
28335;SDS011;15592;53.656;7.276;2023-04-03T00:36:59;1.83;;;1.10;;
28335;SDS011;15592;53.656;7.276;2023-04-03T00:39:25;4.57;;;1.42;;
28335;SDS011;15592;53.656;7.276;2023-04-03T00:41:50;4.65;;;1.35;;
28335;SDS011;15592;53.656;7.276;2023-04-03T00:44:20;4.13;;;1.50;;
28335;SDS011;15592;53.656;7.276;2023-04-03T00:46:48;3.60;;;1.40;;
28335;SDS011;15592;53.656;7.276;2023-04-03T00:49:14;4.15;;;1.52;;
28335;SDS011;15592;53.656;7.276;2023-04-03T00:51:40;4.53;;;1.70;;
28335;SDS011;15592;53.656;7.276;2023-04-03T00:54:06;4.20;;;1.55;;
28335;SDS011;15592;53.656;7.276;2023-04-03T00:56:33;6.63;;;1.65;;
28335;SDS011;15592;53.656;7.276;2023-04-03T00:59:05;3.35;;;1.50;;
28335;SDS011;15592;53.656;7.276;2023-04-03T01:01:47;2.15;;;1.10;;
28335;SDS011;15592;53.656;7.276;2023-04-03T01:07:04;2.90;;;1.33;;
28335;SDS011;15592;53.656;7.276;2023-04-03T01:09:37;4.85;;;1.65;;
28335;SDS011;15592;53.656;7.276;2023-04-03T01:12:14;5.45;;;1.48;;
28335;SDS011;15592;53.656;7.276;2023-04-03T01:14:49;1.92;;;1.27;;
28335;SDS011;15592;53.656;7.276;2023-04-03T01:17:26;2.38;;;1.10;;
28335;SDS011;15592;53.656;7.276;2023-04-03T01:20:02;7.18;;;1.60;;
28335;SDS011;15592;53.656;7.276;2023-04-03T01:23:23;4.05;;;1.50;;
28335;SDS011;15592;53.656;7.276;2023-04-03T01:25:41;3.63;;;1.45;;
28335;SDS011;15592;53.656;7.276;2023-04-03T01:28:09;2.90;;;1.40;;
28335;SDS011;15592;53.656;7.276;2023-04-03T01:30:48;2.97;;;1.50;;
28335;SDS011;15592;53.656;7.276;2023-04-03T01:33:20;5.50;;;1.65;;
28335;SDS011;15592;53.656;7.276;2023-04-03T01:35:46;7.35;;;2.13;;
28335;SDS011;15592;53.656;7.276;2023-04-03T01:38:11;5.60;;;1.50;;
28335;SDS011;15592;53.656;7.276;2023-04-03T01:40:37;5.32;;;1.63;;
28335;SDS011;15592;53.656;7.276;2023-04-03T01:43:02;3.30;;;1.45;;
28335;SDS011;15592;53.656;7.276;2023-04-03T01:45:28;4.25;;;1.40;;
28335;SDS011;15592;53.656;7.276;2023-04-03T01:47:53;3.90;;;1.52;;
28335;SDS011;15592;53.656;7.276;2023-04-03T01:50:19;4.18;;;1.40;;
28335;SDS011;15592;53.656;7.276;2023-04-03T01:52:45;2.67;;;1.50;;
28335;SDS011;15592;53.656;7.276;2023-04-03T01:55:11;2.58;;;1.10;;
28335;SDS011;15592;53.656;7.276;2023-04-03T01:57:36;3.55;;;1.33;;
28335;SDS011;15592;53.656;7.276;2023-04-03T02:00:02;2.88;;;1.30;;
28335;SDS011;15592;53.656;7.276;2023-04-03T02:02:28;4.00;;;1.35;;
28335;SDS011;15592;53.656;7.276;2023-04-03T02:04:54;3.45;;;1.50;;
28335;SDS011;15592;53.656;7.276;2023-04-03T02:07:19;4.80;;;1.63;;
28335;SDS011;15592;53.656;7.276;2023-04-03T02:09:45;2.45;;;1.48;;
28335;SDS011;15592;53.656;7.276;2023-04-03T02:12:11;3.15;;;1.52;;
28335;SDS011;15592;53.656;7.276;2023-04-03T02:14:36;4.32;;;1.60;;
28335;SDS011;15592;53.656;7.276;2023-04-03T02:17:02;2.90;;;1.88;;
28335;SDS011;15592;53.656;7.276;2023-04-03T02:19:30;8.57;;;2.28;;
28335;SDS011;15592;53.656;7.276;2023-04-03T02:21:56;6.00;;;2.05;;
28335;SDS011;15592;53.656;7.276;2023-04-03T02:24:21;5.55;;;1.60;;
28335;SDS011;15592;53.656;7.276;2023-04-03T02:26:47;4.78;;;1.92;;
28335;SDS011;15592;53.656;7.276;2023-04-03T02:29:13;3.70;;;1.60;;
28335;SDS011;15592;53.656;7.276;2023-04-03T02:31:38;6.95;;;2.13;;
28335;SDS011;15592;53.656;7.276;2023-04-03T02:34:04;4.95;;;1.70;;
28335;SDS011;15592;53.656;7.276;2023-04-03T02:36:30;3.25;;;1.70;;
28335;SDS011;15592;53.656;7.276;2023-04-03T02:38:56;5.97;;;2.05;;
28335;SDS011;15592;53.656;7.276;2023-04-03T02:41:21;5.80;;;2.40;;
28335;SDS011;15592;53.656;7.276;2023-04-03T02:43:47;6.18;;;2.35;;
28335;SDS011;15592;53.656;7.276;2023-04-03T02:46:13;4.93;;;1.90;;
28335;SDS011;15592;53.656;7.276;2023-04-03T02:48:40;5.10;;;1.63;;
28335;SDS011;15592;53.656;7.276;2023-04-03T02:51:05;7.28;;;2.22;;
28335;SDS011;15592;53.656;7.276;2023-04-03T02:53:31;3.33;;;1.67;;
28335;SDS011;15592;53.656;7.276;2023-04-03T02:55:57;8.18;;;2.05;;
28335;SDS011;15592;53.656;7.276;2023-04-03T02:58:22;3.38;;;1.52;;
28335;SDS011;15592;53.656;7.276;2023-04-03T03:00:48;5.78;;;1.70;;
28335;SDS011;15592;53.656;7.276;2023-04-03T03:03:13;4.20;;;2.03;;
28335;SDS011;15592;53.656;7.276;2023-04-03T03:05:39;5.53;;;2.00;;
28335;SDS011;15592;53.656;7.276;2023-04-03T03:08:05;5.78;;;2.20;;
28335;SDS011;15592;53.656;7.276;2023-04-03T03:10:31;6.53;;;1.98;;
28335;SDS011;15592;53.656;7.276;2023-04-03T03:12:56;5.28;;;2.25;;
28335;SDS011;15592;53.656;7.276;2023-04-03T03:15:22;4.53;;;2.00;;
28335;SDS011;15592;53.656;7.276;2023-04-03T03:17:47;7.05;;;2.20;;
28335;SDS011;15592;53.656;7.276;2023-04-03T03:20:13;8.50;;;2.20;;
28335;SDS011;15592;53.656;7.276;2023-04-03T03:22:40;7.10;;;2.55;;
28335;SDS011;15592;53.656;7.276;2023-04-03T03:25:05;8.77;;;2.42;;
28335;SDS011;15592;53.656;7.276;2023-04-03T03:27:31;8.02;;;2.58;;
28335;SDS011;15592;53.656;7.276;2023-04-03T03:29:57;6.53;;;2.30;;
28335;SDS011;15592;53.656;7.276;2023-04-03T03:32:22;6.55;;;2.58;;
28335;SDS011;15592;53.656;7.276;2023-04-03T03:34:48;5.20;;;2.17;;
28335;SDS011;15592;53.656;7.276;2023-04-03T03:37:14;6.07;;;2.47;;
28335;SDS011;15592;53.656;7.276;2023-04-03T03:39:39;6.00;;;2.90;;
28335;SDS011;15592;53.656;7.276;2023-04-03T03:42:05;7.60;;;2.40;;
28335;SDS011;15592;53.656;7.276;2023-04-03T03:44:30;5.32;;;2.20;;
28335;SDS011;15592;53.656;7.276;2023-04-03T03:46:56;7.93;;;2.92;;
28335;SDS011;15592;53.656;7.276;2023-04-03T03:49:22;4.78;;;2.42;;
28335;SDS011;15592;53.656;7.276;2023-04-03T03:51:47;7.32;;;2.80;;
28335;SDS011;15592;53.656;7.276;2023-04-03T03:54:14;5.50;;;2.33;;
28335;SDS011;15592;53.656;7.276;2023-04-03T03:56:40;7.28;;;2.83;;
28335;SDS011;15592;53.656;7.276;2023-04-03T03:59:06;5.40;;;2.25;;
28335;SDS011;15592;53.656;7.276;2023-04-03T04:01:31;5.00;;;2.58;;
28335;SDS011;15592;53.656;7.276;2023-04-03T04:03:57;5.25;;;2.30;;
28335;SDS011;15592;53.656;7.276;2023-04-03T04:06:23;4.13;;;2.00;;
28335;SDS011;15592;53.656;7.276;2023-04-03T04:08:49;5.85;;;2.10;;
28335;SDS011;15592;53.656;7.276;2023-04-03T04:11:15;5.05;;;2.58;;
28335;SDS011;15592;53.656;7.276;2023-04-03T04:13:40;6.13;;;2.45;;
28335;SDS011;15592;53.656;7.276;2023-04-03T04:16:06;6.13;;;2.60;;
28335;SDS011;15592;53.656;7.276;2023-04-03T04:18:32;6.43;;;2.13;;
28335;SDS011;15592;53.656;7.276;2023-04-03T04:20:58;4.75;;;2.35;;
28335;SDS011;15592;53.656;7.276;2023-04-03T04:23:24;5.30;;;2.40;;
28335;SDS011;15592;53.656;7.276;2023-04-03T04:25:50;4.65;;;2.30;;
28335;SDS011;15592;53.656;7.276;2023-04-03T04:28:16;9.32;;;2.42;;
28335;SDS011;15592;53.656;7.276;2023-04-03T04:30:42;5.55;;;2.38;;
28335;SDS011;15592;53.656;7.276;2023-04-03T04:33:08;6.28;;;2.28;;
28335;SDS011;15592;53.656;7.276;2023-04-03T04:35:34;4.05;;;2.47;;
28335;SDS011;15592;53.656;7.276;2023-04-03T04:38:00;7.03;;;2.53;;
28335;SDS011;15592;53.656;7.276;2023-04-03T04:40:26;7.32;;;2.22;;
28335;SDS011;15592;53.656;7.276;2023-04-03T04:42:52;4.85;;;2.17;;
28335;SDS011;15592;53.656;7.276;2023-04-03T04:45:18;4.90;;;2.42;;
28335;SDS011;15592;53.656;7.276;2023-04-03T04:47:44;3.67;;;2.08;;
28335;SDS011;15592;53.656;7.276;2023-04-03T04:50:09;4.80;;;2.38;;
28335;SDS011;15592;53.656;7.276;2023-04-03T04:52:36;5.60;;;2.42;;
28335;SDS011;15592;53.656;7.276;2023-04-03T04:55:02;4.88;;;2.45;;
28335;SDS011;15592;53.656;7.276;2023-04-03T04:57:28;7.32;;;2.58;;
28335;SDS011;15592;53.656;7.276;2023-04-03T04:59:54;4.45;;;2.20;;
28335;SDS011;15592;53.656;7.276;2023-04-03T05:02:20;4.00;;;2.20;;
28335;SDS011;15592;53.656;7.276;2023-04-03T05:04:45;6.05;;;2.45;;
28335;SDS011;15592;53.656;7.276;2023-04-03T05:07:11;3.92;;;2.47;;
28335;SDS011;15592;53.656;7.276;2023-04-03T05:09:36;9.27;;;2.35;;
28335;SDS011;15592;53.656;7.276;2023-04-03T05:12:02;5.93;;;2.40;;
28335;SDS011;15592;53.656;7.276;2023-04-03T05:14:28;7.65;;;2.55;;
28335;SDS011;15592;53.656;7.276;2023-04-03T05:16:54;4.72;;;2.55;;
28335;SDS011;15592;53.656;7.276;2023-04-03T05:19:20;5.78;;;2.80;;
28335;SDS011;15592;53.656;7.276;2023-04-03T05:21:46;6.13;;;2.60;;
28335;SDS011;15592;53.656;7.276;2023-04-03T05:24:12;4.57;;;2.15;;
28335;SDS011;15592;53.656;7.276;2023-04-03T05:26:38;6.25;;;2.85;;
28335;SDS011;15592;53.656;7.276;2023-04-03T05:29:04;6.25;;;2.58;;
28335;SDS011;15592;53.656;7.276;2023-04-03T05:31:29;6.75;;;2.67;;
28335;SDS011;15592;53.656;7.276;2023-04-03T05:33:55;5.25;;;2.22;;
28335;SDS011;15592;53.656;7.276;2023-04-03T05:36:21;5.55;;;2.33;;
28335;SDS011;15592;53.656;7.276;2023-04-03T05:38:47;6.70;;;2.42;;
28335;SDS011;15592;53.656;7.276;2023-04-03T05:41:14;7.55;;;3.17;;
28335;SDS011;15592;53.656;7.276;2023-04-03T05:43:40;4.90;;;2.33;;
28335;SDS011;15592;53.656;7.276;2023-04-03T05:46:16;5.32;;;2.50;;
28335;SDS011;15592;53.656;7.276;2023-04-03T05:48:43;5.03;;;2.80;;
28335;SDS011;15592;53.656;7.276;2023-04-03T05:51:16;4.43;;;2.20;;
28335;SDS011;15592;53.656;7.276;2023-04-03T05:53:52;5.75;;;2.55;;
28335;SDS011;15592;53.656;7.276;2023-04-03T05:56:24;4.00;;;2.15;;
28335;SDS011;15592;53.656;7.276;2023-04-03T05:58:50;5.50;;;2.47;;
28335;SDS011;15592;53.656;7.276;2023-04-03T06:01:16;6.45;;;2.15;;
28335;SDS011;15592;53.656;7.276;2023-04-03T06:03:42;6.45;;;2.47;;
28335;SDS011;15592;53.656;7.276;2023-04-03T06:06:07;4.88;;;2.25;;
28335;SDS011;15592;53.656;7.276;2023-04-03T06:08:33;7.93;;;2.78;;
28335;SDS011;15592;53.656;7.276;2023-04-03T06:10:59;5.00;;;2.50;;
28335;SDS011;15592;53.656;7.276;2023-04-03T06:13:26;5.78;;;2.78;;
28335;SDS011;15592;53.656;7.276;2023-04-03T06:15:52;4.47;;;2.10;;
28335;SDS011;15592;53.656;7.276;2023-04-03T06:18:18;8.45;;;2.40;;
28335;SDS011;15592;53.656;7.276;2023-04-03T06:20:43;7.03;;;2.92;;
28335;SDS011;15592;53.656;7.276;2023-04-03T06:23:09;4.72;;;2.35;;
28335;SDS011;15592;53.656;7.276;2023-04-03T06:25:35;6.88;;;2.47;;
28335;SDS011;15592;53.656;7.276;2023-04-03T06:28:01;4.30;;;2.38;;
28335;SDS011;15592;53.656;7.276;2023-04-03T06:30:26;6.15;;;2.53;;
28335;SDS011;15592;53.656;7.276;2023-04-03T06:32:52;7.55;;;2.85;;
28335;SDS011;15592;53.656;7.276;2023-04-03T06:35:17;8.18;;;3.05;;
28335;SDS011;15592;53.656;7.276;2023-04-03T06:37:43;5.57;;;2.75;;
28335;SDS011;15592;53.656;7.276;2023-04-03T06:40:13;4.82;;;2.58;;
28335;SDS011;15592;53.656;7.276;2023-04-03T06:42:44;7.28;;;2.70;;
28335;SDS011;15592;53.656;7.276;2023-04-03T06:45:10;6.50;;;2.53;;
28335;SDS011;15592;53.656;7.276;2023-04-03T06:47:36;6.13;;;2.60;;
28335;SDS011;15592;53.656;7.276;2023-04-03T06:50:02;7.78;;;3.13;;
28335;SDS011;15592;53.656;7.276;2023-04-03T06:52:27;4.93;;;2.58;;
28335;SDS011;15592;53.656;7.276;2023-04-03T06:54:53;5.60;;;2.60;;
28335;SDS011;15592;53.656;7.276;2023-04-03T06:57:22;4.88;;;2.75;;
28335;SDS011;15592;53.656;7.276;2023-04-03T06:59:48;4.72;;;2.42;;
28335;SDS011;15592;53.656;7.276;2023-04-03T07:02:13;5.57;;;2.17;;
28335;SDS011;15592;53.656;7.276;2023-04-03T07:04:39;5.53;;;2.25;;
28335;SDS011;15592;53.656;7.276;2023-04-03T07:07:05;5.05;;;2.55;;
28335;SDS011;15592;53.656;7.276;2023-04-03T07:09:30;7.25;;;2.53;;
28335;SDS011;15592;53.656;7.276;2023-04-03T07:11:56;7.55;;;2.35;;
28335;SDS011;15592;53.656;7.276;2023-04-03T07:14:22;3.72;;;2.47;;
28335;SDS011;15592;53.656;7.276;2023-04-03T07:16:47;4.30;;;2.60;;
28335;SDS011;15592;53.656;7.276;2023-04-03T07:19:13;6.55;;;2.85;;
28335;SDS011;15592;53.656;7.276;2023-04-03T07:21:39;4.72;;;2.20;;
28335;SDS011;15592;53.656;7.276;2023-04-03T07:24:06;6.68;;;2.50;;
28335;SDS011;15592;53.656;7.276;2023-04-03T07:26:32;5.00;;;2.17;;
28335;SDS011;15592;53.656;7.276;2023-04-03T07:28:58;8.30;;;2.70;;
28335;SDS011;15592;53.656;7.276;2023-04-03T07:31:24;8.52;;;2.22;;
28335;SDS011;15592;53.656;7.276;2023-04-03T07:33:50;6.55;;;2.17;;
28335;SDS011;15592;53.656;7.276;2023-04-03T07:36:17;3.17;;;1.60;;
28335;SDS011;15592;53.656;7.276;2023-04-03T07:38:45;4.43;;;1.98;;
28335;SDS011;15592;53.656;7.276;2023-04-03T07:41:12;3.60;;;1.85;;
28335;SDS011;15592;53.656;7.276;2023-04-03T07:43:40;9.45;;;1.95;;
28335;SDS011;15592;53.656;7.276;2023-04-03T07:46:07;4.20;;;2.03;;
28335;SDS011;15592;53.656;7.276;2023-04-03T07:48:32;5.22;;;1.90;;
28335;SDS011;15592;53.656;7.276;2023-04-03T07:51:00;5.32;;;1.70;;
28335;SDS011;15592;53.656;7.276;2023-04-03T07:53:26;4.88;;;1.48;;
28335;SDS011;15592;53.656;7.276;2023-04-03T07:55:52;3.33;;;1.58;;
28335;SDS011;15592;53.656;7.276;2023-04-03T07:58:21;6.03;;;1.60;;
28335;SDS011;15592;53.656;7.276;2023-04-03T08:00:47;5.05;;;1.40;;
28335;SDS011;15592;53.656;7.276;2023-04-03T08:03:13;4.93;;;1.50;;
28335;SDS011;15592;53.656;7.276;2023-04-03T08:05:43;3.70;;;1.60;;
28335;SDS011;15592;53.656;7.276;2023-04-03T08:08:12;5.20;;;1.55;;
28335;SDS011;15592;53.656;7.276;2023-04-03T08:10:40;3.22;;;1.30;;
28335;SDS011;15592;53.656;7.276;2023-04-03T08:13:06;3.67;;;1.50;;
28335;SDS011;15592;53.656;7.276;2023-04-03T08:15:34;4.43;;;1.38;;
28335;SDS011;15592;53.656;7.276;2023-04-03T08:18:00;4.95;;;1.30;;
28335;SDS011;15592;53.656;7.276;2023-04-03T08:20:26;3.83;;;1.30;;
28335;SDS011;15592;53.656;7.276;2023-04-03T08:22:52;2.38;;;1.35;;
28335;SDS011;15592;53.656;7.276;2023-04-03T08:25:17;2.97;;;1.00;;
28335;SDS011;15592;53.656;7.276;2023-04-03T08:27:43;3.42;;;1.10;;
28335;SDS011;15592;53.656;7.276;2023-04-03T08:30:10;2.65;;;1.20;;
28335;SDS011;15592;53.656;7.276;2023-04-03T08:32:36;2.85;;;1.10;;
28335;SDS011;15592;53.656;7.276;2023-04-03T08:35:02;4.53;;;1.17;;
28335;SDS011;15592;53.656;7.276;2023-04-03T08:37:29;3.22;;;1.63;;
28335;SDS011;15592;53.656;7.276;2023-04-03T08:39:55;3.60;;;1.20;;
28335;SDS011;15592;53.656;7.276;2023-04-03T08:47:46;4.00;;;1.33;;
28335;SDS011;15592;53.656;7.276;2023-04-03T08:50:42;4.50;;;1.60;;
28335;SDS011;15592;53.656;7.276;2023-04-03T08:53:15;5.75;;;1.85;;
28335;SDS011;15592;53.656;7.276;2023-04-03T08:55:51;3.17;;;1.48;;
28335;SDS011;15592;53.656;7.276;2023-04-03T08:58:21;4.18;;;1.60;;
28335;SDS011;15592;53.656;7.276;2023-04-03T09:01:00;5.15;;;1.60;;
28335;SDS011;15592;53.656;7.276;2023-04-03T09:03:36;3.25;;;1.05;;
28335;SDS011;15592;53.656;7.276;2023-04-03T09:14:23;3.28;;;1.20;;
28335;SDS011;15592;53.656;7.276;2023-04-03T09:21:56;2.33;;;0.90;;
28335;SDS011;15592;53.656;7.276;2023-04-03T09:24:27;2.55;;;1.27;;
28335;SDS011;15592;53.656;7.276;2023-04-03T09:26:58;2.92;;;1.20;;
28335;SDS011;15592;53.656;7.276;2023-04-03T09:29:30;1.85;;;0.82;;
28335;SDS011;15592;53.656;7.276;2023-04-03T09:32:02;3.00;;;1.15;;
28335;SDS011;15592;53.656;7.276;2023-04-03T09:34:37;2.20;;;1.10;;
28335;SDS011;15592;53.656;7.276;2023-04-03T09:37:06;2.17;;;0.70;;
28335;SDS011;15592;53.656;7.276;2023-04-03T09:39:48;2.72;;;0.82;;
28335;SDS011;15592;53.656;7.276;2023-04-03T09:42:20;1.25;;;0.75;;
28335;SDS011;15592;53.656;7.276;2023-04-03T09:44:54;4.20;;;0.90;;
28335;SDS011;15592;53.656;7.276;2023-04-03T09:47:26;1.10;;;0.77;;
28335;SDS011;15592;53.656;7.276;2023-04-03T09:50:19;2.45;;;0.75;;
28335;SDS011;15592;53.656;7.276;2023-04-03T09:52:47;1.63;;;0.73;;
28335;SDS011;15592;53.656;7.276;2023-04-03T09:55:15;1.65;;;0.88;;
28335;SDS011;15592;53.656;7.276;2023-04-03T09:57:43;1.25;;;0.75;;
28335;SDS011;15592;53.656;7.276;2023-04-03T10:00:20;2.38;;;0.90;;
28335;SDS011;15592;53.656;7.276;2023-04-03T10:02:49;2.40;;;0.95;;
28335;SDS011;15592;53.656;7.276;2023-04-03T10:10:41;1.77;;;0.90;;
28335;SDS011;15592;53.656;7.276;2023-04-03T10:13:11;2.25;;;0.93;;
28335;SDS011;15592;53.656;7.276;2023-04-03T10:15:40;2.22;;;1.10;;
28335;SDS011;15592;53.656;7.276;2023-04-03T10:20:49;3.25;;;1.20;;
28335;SDS011;15592;53.656;7.276;2023-04-03T10:23:18;3.88;;;1.30;;
28335;SDS011;15592;53.656;7.276;2023-04-03T10:25:59;3.40;;;1.20;;
28335;SDS011;15592;53.656;7.276;2023-04-03T10:28:49;3.15;;;1.10;;
28335;SDS011;15592;53.656;7.276;2023-04-03T10:39:43;2.47;;;0.98;;
28335;SDS011;15592;53.656;7.276;2023-04-03T10:47:58;2.22;;;0.80;;
28335;SDS011;15592;53.656;7.276;2023-04-03T10:51:21;3.78;;;0.90;;
28335;SDS011;15592;53.656;7.276;2023-04-03T10:56:30;2.15;;;0.80;;
28335;SDS011;15592;53.656;7.276;2023-04-03T11:01:48;2.05;;;0.70;;
28335;SDS011;15592;53.656;7.276;2023-04-03T11:04:17;3.75;;;0.65;;
28335;SDS011;15592;53.656;7.276;2023-04-03T11:06:50;0.73;;;0.73;;
28335;SDS011;15592;53.656;7.276;2023-04-03T11:09:31;2.55;;;0.68;;
28335;SDS011;15592;53.656;7.276;2023-04-03T11:14:58;3.17;;;0.57;;
28335;SDS011;15592;53.656;7.276;2023-04-03T11:17:28;1.25;;;0.45;;
28335;SDS011;15592;53.656;7.276;2023-04-03T11:20:10;1.58;;;0.70;;
28335;SDS011;15592;53.656;7.276;2023-04-03T11:22:47;0.98;;;0.60;;
28335;SDS011;15592;53.656;7.276;2023-04-03T11:25:23;0.52;;;0.40;;
28335;SDS011;15592;53.656;7.276;2023-04-03T11:28:03;1.52;;;0.47;;
28335;SDS011;15592;53.656;7.276;2023-04-03T11:35:45;0.60;;;0.40;;
28335;SDS011;15592;53.656;7.276;2023-04-03T11:38:35;0.68;;;0.50;;
28335;SDS011;15592;53.656;7.276;2023-04-03T11:41:02;1.98;;;0.75;;
28335;SDS011;15592;53.656;7.276;2023-04-03T11:43:30;1.27;;;0.80;;
28335;SDS011;15592;53.656;7.276;2023-04-03T11:53:39;1.45;;;0.45;;
28335;SDS011;15592;53.656;7.276;2023-04-03T11:58:43;1.20;;;0.70;;
28335;SDS011;15592;53.656;7.276;2023-04-03T12:01:44;2.10;;;1.20;;
28335;SDS011;15592;53.656;7.276;2023-04-03T12:04:10;3.45;;;0.93;;
28335;SDS011;15592;53.656;7.276;2023-04-03T12:09:21;1.80;;;0.75;;
28335;SDS011;15592;53.656;7.276;2023-04-03T12:11:56;2.97;;;1.00;;
28335;SDS011;15592;53.656;7.276;2023-04-03T12:14:24;1.52;;;0.90;;
28335;SDS011;15592;53.656;7.276;2023-04-03T12:16:51;2.83;;;0.90;;
28335;SDS011;15592;53.656;7.276;2023-04-03T12:22:11;3.63;;;0.90;;
28335;SDS011;15592;53.656;7.276;2023-04-03T12:24:42;0.70;;;0.70;;
28335;SDS011;15592;53.656;7.276;2023-04-03T12:27:26;2.22;;;1.00;;
28335;SDS011;15592;53.656;7.276;2023-04-03T12:29:59;2.70;;;1.10;;
28335;SDS011;15592;53.656;7.276;2023-04-03T12:46:22;1.83;;;0.60;;
28335;SDS011;15592;53.656;7.276;2023-04-03T12:48:58;3.25;;;0.63;;
28335;SDS011;15592;53.656;7.276;2023-04-03T12:54:12;1.42;;;0.65;;
28335;SDS011;15592;53.656;7.276;2023-04-03T12:56:44;1.55;;;1.15;;
28335;SDS011;15592;53.656;7.276;2023-04-03T12:59:14;2.03;;;0.60;;
28335;SDS011;15592;53.656;7.276;2023-04-03T13:01:43;2.38;;;0.60;;
28335;SDS011;15592;53.656;7.276;2023-04-03T13:04:11;2.40;;;0.45;;
28335;SDS011;15592;53.656;7.276;2023-04-03T13:06:38;1.67;;;0.68;;
28335;SDS011;15592;53.656;7.276;2023-04-03T13:09:06;1.15;;;0.60;;
28335;SDS011;15592;53.656;7.276;2023-04-03T13:12:08;1.23;;;0.60;;
28335;SDS011;15592;53.656;7.276;2023-04-03T13:14:36;1.65;;;0.68;;
28335;SDS011;15592;53.656;7.276;2023-04-03T13:17:14;2.10;;;0.80;;
28335;SDS011;15592;53.656;7.276;2023-04-03T13:19:41;2.42;;;0.80;;
28335;SDS011;15592;53.656;7.276;2023-04-03T13:22:10;1.48;;;0.95;;
28335;SDS011;15592;53.656;7.276;2023-04-03T13:25:04;2.88;;;0.85;;
28335;SDS011;15592;53.656;7.276;2023-04-03T13:27:32;2.08;;;0.65;;
28335;SDS011;15592;53.656;7.276;2023-04-03T13:29:59;1.42;;;0.80;;
28335;SDS011;15592;53.656;7.276;2023-04-03T13:32:27;2.03;;;0.80;;
28335;SDS011;15592;53.656;7.276;2023-04-03T13:34:54;1.02;;;0.80;;
28335;SDS011;15592;53.656;7.276;2023-04-03T13:37:28;2.63;;;0.73;;
28335;SDS011;15592;53.656;7.276;2023-04-03T13:40:03;2.85;;;0.77;;
28335;SDS011;15592;53.656;7.276;2023-04-03T13:42:39;2.88;;;0.90;;
28335;SDS011;15592;53.656;7.276;2023-04-03T13:45:17;2.90;;;0.93;;
28335;SDS011;15592;53.656;7.276;2023-04-03T13:47:53;3.15;;;1.08;;
28335;SDS011;15592;53.656;7.276;2023-04-03T13:50:33;3.90;;;1.27;;
28335;SDS011;15592;53.656;7.276;2023-04-03T13:53:34;4.60;;;1.80;;
28335;SDS011;15592;53.656;7.276;2023-04-03T13:56:35;2.25;;;1.00;;
28335;SDS011;15592;53.656;7.276;2023-04-03T14:01:45;4.70;;;1.42;;
28335;SDS011;15592;53.656;7.276;2023-04-03T14:04:17;5.45;;;1.00;;
28335;SDS011;15592;53.656;7.276;2023-04-03T14:06:45;2.15;;;1.00;;
28335;SDS011;15592;53.656;7.276;2023-04-03T14:09:11;4.53;;;1.33;;
28335;SDS011;15592;53.656;7.276;2023-04-03T14:11:38;2.78;;;1.00;;
28335;SDS011;15592;53.656;7.276;2023-04-03T14:14:09;1.83;;;0.90;;
28335;SDS011;15592;53.656;7.276;2023-04-03T14:16:42;4.07;;;1.13;;
28335;SDS011;15592;53.656;7.276;2023-04-03T14:19:21;3.42;;;1.33;;
28335;SDS011;15592;53.656;7.276;2023-04-03T14:21:55;1.90;;;1.00;;
28335;SDS011;15592;53.656;7.276;2023-04-03T14:24:21;3.28;;;1.27;;
28335;SDS011;15592;53.656;7.276;2023-04-03T14:26:48;2.10;;;1.08;;
28335;SDS011;15592;53.656;7.276;2023-04-03T14:29:15;4.25;;;1.33;;
28335;SDS011;15592;53.656;7.276;2023-04-03T14:31:42;3.22;;;0.95;;
28335;SDS011;15592;53.656;7.276;2023-04-03T14:34:09;4.57;;;1.02;;
28335;SDS011;15592;53.656;7.276;2023-04-03T14:36:36;4.28;;;1.20;;
28335;SDS011;15592;53.656;7.276;2023-04-03T14:39:04;3.55;;;1.30;;
28335;SDS011;15592;53.656;7.276;2023-04-03T14:43:59;6.75;;;1.60;;
28335;SDS011;15592;53.656;7.276;2023-04-03T14:46:26;5.00;;;1.60;;
28335;SDS011;15592;53.656;7.276;2023-04-03T14:48:56;5.78;;;1.88;;
28335;SDS011;15592;53.656;7.276;2023-04-03T14:51:23;3.40;;;1.40;;
28335;SDS011;15592;53.656;7.276;2023-04-03T14:53:49;6.70;;;1.73;;
28335;SDS011;15592;53.656;7.276;2023-04-03T14:56:17;4.95;;;1.48;;
28335;SDS011;15592;53.656;7.276;2023-04-03T14:58:47;2.90;;;1.30;;
28335;SDS011;15592;53.656;7.276;2023-04-03T15:01:15;2.92;;;1.13;;
28335;SDS011;15592;53.656;7.276;2023-04-03T15:03:42;3.67;;;1.20;;
28335;SDS011;15592;53.656;7.276;2023-04-03T15:06:11;5.13;;;1.25;;
28335;SDS011;15592;53.656;7.276;2023-04-03T15:08:39;3.17;;;1.35;;
28335;SDS011;15592;53.656;7.276;2023-04-03T15:11:06;4.85;;;1.23;;
28335;SDS011;15592;53.656;7.276;2023-04-03T15:13:33;3.38;;;1.20;;
28335;SDS011;15592;53.656;7.276;2023-04-03T15:15:59;4.28;;;1.10;;
28335;SDS011;15592;53.656;7.276;2023-04-03T15:18:25;2.70;;;1.08;;
28335;SDS011;15592;53.656;7.276;2023-04-03T15:20:53;4.20;;;1.20;;
28335;SDS011;15592;53.656;7.276;2023-04-03T15:23:20;1.92;;;1.00;;
28335;SDS011;15592;53.656;7.276;2023-04-03T15:25:50;2.97;;;1.25;;
28335;SDS011;15592;53.656;7.276;2023-04-03T15:28:39;7.28;;;1.48;;
28335;SDS011;15592;53.656;7.276;2023-04-03T15:31:07;4.82;;;1.77;;
28335;SDS011;15592;53.656;7.276;2023-04-03T15:33:34;3.90;;;1.40;;
28335;SDS011;15592;53.656;7.276;2023-04-03T15:36:01;6.03;;;1.45;;
28335;SDS011;15592;53.656;7.276;2023-04-03T15:38:27;5.10;;;1.20;;
28335;SDS011;15592;53.656;7.276;2023-04-03T15:40:53;4.72;;;1.33;;
28335;SDS011;15592;53.656;7.276;2023-04-03T15:43:20;5.22;;;1.30;;
28335;SDS011;15592;53.656;7.276;2023-04-03T15:45:45;2.85;;;1.30;;
28335;SDS011;15592;53.656;7.276;2023-04-03T15:48:11;5.22;;;1.30;;
28335;SDS011;15592;53.656;7.276;2023-04-03T15:54:00;4.70;;;1.23;;
28335;SDS011;15592;53.656;7.276;2023-04-03T15:56:33;4.78;;;1.58;;
28335;SDS011;15592;53.656;7.276;2023-04-03T15:59:10;4.40;;;1.65;;
28335;SDS011;15592;53.656;7.276;2023-04-03T16:05:12;3.53;;;1.33;;
28335;SDS011;15592;53.656;7.276;2023-04-03T16:07:40;4.35;;;1.17;;
28335;SDS011;15592;53.656;7.276;2023-04-03T16:13:33;2.83;;;1.35;;
28335;SDS011;15592;53.656;7.276;2023-04-03T16:18:52;3.22;;;1.55;;
28335;SDS011;15592;53.656;7.276;2023-04-03T16:21:23;4.75;;;1.42;;
28335;SDS011;15592;53.656;7.276;2023-04-03T16:24:07;3.90;;;1.58;;
28335;SDS011;15592;53.656;7.276;2023-04-03T16:29:25;3.08;;;1.30;;
28335;SDS011;15592;53.656;7.276;2023-04-03T16:32:07;2.55;;;1.20;;
28335;SDS011;15592;53.656;7.276;2023-04-03T16:34:33;2.13;;;1.05;;
28335;SDS011;15592;53.656;7.276;2023-04-03T16:36:58;2.05;;;0.95;;
28335;SDS011;15592;53.656;7.276;2023-04-03T16:39:24;4.10;;;1.13;;
28335;SDS011;15592;53.656;7.276;2023-04-03T16:41:50;3.08;;;1.35;;
28335;SDS011;15592;53.656;7.276;2023-04-03T16:44:16;4.32;;;1.33;;
28335;SDS011;15592;53.656;7.276;2023-04-03T16:46:41;3.53;;;1.25;;
28335;SDS011;15592;53.656;7.276;2023-04-03T16:49:07;1.80;;;1.20;;